^^
Saratoga-Weather Station Historical Data
Daily Summary for May 26, 2020 Units:  Both    English   Metric
Daily Weekly Monthly Yearly Custom
  High: Low: Average:
Temperature: 75.4 °F /  24.1 °C 62.6 °F /  17 °C 68.4 °F /  20.2 °C
Dew Point: 60.3 °F /  15.7 °C 51.3 °F /  10.7 °C 54.5 °F /  12.5 °C
Humidity: 79% 46% 62%
Wind Speed: 19mph /  30.6km/h - 6.2mph /  10km/h
Wind Gust: 23mph /  37km/h - -
Wind- - West
Pressure: 30.1 in /  1018.3 hPa 29.7 in /  1006.4 hPa -
Precipitation: 0 in /  0.0 mm    
Historical Graphs
 
 
Tabular Data for May 26, 2020
Time Temperature Dew Point Pressure Wind Wind Speed Wind Gust Humidity Rainfall Rate (Hourly) solar
00:01 75.4 °F /  24.1 °C 59.5 °F /  15.3 °C 29.7in /  1006.4hPa WNW 6mph /  9.7km/h 16mph /  25.7km/h 58% 0in /  0.0mm 0 W/m2
00:06 75.4 °F /  24.1 °C 59.5 °F /  15.3 °C 29.7in /  1006.4hPa WNW 2mph /  3.2km/h 9mph /  14.5km/h 58% 0in /  0.0mm 0 W/m2
00:11 75.2 °F /  24 °C 59.4 °F /  15.2 °C 29.7in /  1006.4hPa SW 4mph /  6.4km/h 15mph /  24.1km/h 58% 0in /  0.0mm 0 W/m2
00:16 75 °F /  23.9 °C 59.7 °F /  15.4 °C 29.7in /  1006.4hPa West 4mph /  6.4km/h 12mph /  19.3km/h 59% 0in /  0.0mm 0 W/m2
00:21 74.8 °F /  23.8 °C 59.5 °F /  15.3 °C 29.7in /  1006.4hPa West 10.1mph /  16.3km/h 15mph /  24.1km/h 59% 0in /  0.0mm 0 W/m2
00:27 74.7 °F /  23.7 °C 59.4 °F /  15.2 °C 29.7in /  1006.4hPa NNW 2.9mph /  4.7km/h 8mph /  12.9km/h 59% 0in /  0.0mm 0 W/m2
00:32 74.5 °F /  23.6 °C 59.2 °F /  15.1 °C 29.7in /  1006.4hPa West 8.9mph /  14.3km/h 13mph /  20.9km/h 59% 0in /  0.0mm 0 W/m2
00:37 74.1 °F /  23.4 °C 58.8 °F /  14.9 °C 29.7in /  1006.4hPa WSW 2mph /  3.2km/h 9mph /  14.5km/h 59% 0in /  0.0mm 0 W/m2
00:42 73.9 °F /  23.3 °C 59.2 °F /  15.1 °C 29.7in /  1006.4hPa NNW 6mph /  9.7km/h 10mph /  16.1km/h 60% 0in /  0.0mm 0 W/m2
00:47 73.8 °F /  23.2 °C 59 °F /  15 °C 29.7in /  1006.4hPa NW 2mph /  3.2km/h 10mph /  16.1km/h 60% 0in /  0.0mm 0 W/m2
00:52 73.6 °F /  23.1 °C 59.4 °F /  15.2 °C 29.7in /  1006.4hPa West 8.9mph /  14.3km/h 16mph /  25.7km/h 61% 0in /  0.0mm 0 W/m2
00:57 73.6 °F /  23.1 °C 59.7 °F /  15.4 °C 29.7in /  1006.8hPa West 6.9mph /  11.1km/h 11mph /  17.7km/h 62% 0in /  0.0mm 0 W/m2
01:02 73.2 °F /  22.9 °C 59.9 °F /  15.5 °C 29.7in /  1006.8hPa NW 6mph /  9.7km/h 7mph /  11.3km/h 63% 0in /  0.0mm 0 W/m2
01:07 73 °F /  22.8 °C 59.7 °F /  15.4 °C 29.7in /  1006.8hPa West 4mph /  6.4km/h 17mph /  27.4km/h 63% 0in /  0.0mm 0 W/m2
01:12 73 °F /  22.8 °C 60.1 °F /  15.6 °C 29.7in /  1006.8hPa WNW 2.9mph /  4.7km/h 5mph /  8km/h 64% 0in /  0.0mm 0 W/m2
01:17 72.9 °F /  22.7 °C 59.9 °F /  15.5 °C 29.7in /  1006.8hPa WSW 8.9mph /  14.3km/h 17mph /  27.4km/h 64% 0in /  0.0mm 0 W/m2
01:22 72.7 °F /  22.6 °C 60.3 °F /  15.7 °C 29.7in /  1006.8hPa NNW 8.9mph /  14.3km/h 16mph /  25.7km/h 65% 0in /  0.0mm 0 W/m2
01:27 72.5 °F /  22.5 °C 60.1 °F /  15.6 °C 29.7in /  1006.8hPa NW 4.9mph /  7.9km/h 8mph /  12.9km/h 65% 0in /  0.0mm 0 W/m2
01:32 72.3 °F /  22.4 °C 59.9 °F /  15.5 °C 29.7in /  1006.8hPa NW 4mph /  6.4km/h 11mph /  17.7km/h 65% 0in /  0.0mm 0 W/m2
01:37 72.1 °F /  22.3 °C 59.7 °F /  15.4 °C 29.7in /  1007.1hPa West 4mph /  6.4km/h 15mph /  24.1km/h 65% 0in /  0.0mm 0 W/m2
01:42 72 °F /  22.2 °C 59.5 °F /  15.3 °C 29.7in /  1006.8hPa WSW 2mph /  3.2km/h 6mph /  9.7km/h 65% 0in /  0.0mm 0 W/m2
01:47 71.8 °F /  22.1 °C 59.4 °F /  15.2 °C 29.7in /  1006.8hPa West 8.9mph /  14.3km/h 10mph /  16.1km/h 65% 0in /  0.0mm 0 W/m2
01:52 71.4 °F /  21.9 °C 58.6 °F /  14.8 °C 29.7in /  1007.1hPa NNW 10.1mph /  16.3km/h 14mph /  22.5km/h 64% 0in /  0.0mm 0 W/m2
01:57 71.4 °F /  21.9 °C 58.1 °F /  14.5 °C 29.7in /  1007.1hPa WNW 2.9mph /  4.7km/h 5mph /  8km/h 63% 0in /  0.0mm 0 W/m2
02:02 71.2 °F /  21.8 °C 57.6 °F /  14.2 °C 29.7in /  1007.1hPa WNW 4mph /  6.4km/h 14mph /  22.5km/h 62% 0in /  0.0mm 0 W/m2
02:07 71.1 °F /  21.7 °C 57.4 °F /  14.1 °C 29.7in /  1007.1hPa North 2mph /  3.2km/h 12mph /  19.3km/h 62% 0in /  0.0mm 0 W/m2
02:12 70.9 °F /  21.6 °C 57.7 °F /  14.3 °C 29.7in /  1007.1hPa NNW 2mph /  3.2km/h 11mph /  17.7km/h 63% 0in /  0.0mm 0 W/m2
02:17 70.7 °F /  21.5 °C 57.9 °F /  14.4 °C 29.7in /  1007.1hPa NW 8.9mph /  14.3km/h 9mph /  14.5km/h 64% 0in /  0.0mm 0 W/m2
02:22 70.5 °F /  21.4 °C 57.7 °F /  14.3 °C 29.8in /  1007.5hPa SW 4mph /  6.4km/h 13mph /  20.9km/h 64% 0in /  0.0mm 0 W/m2
02:27 70.3 °F /  21.3 °C 58.1 °F /  14.5 °C 29.8in /  1007.5hPa West 2.9mph /  4.7km/h 10mph /  16.1km/h 65% 0in /  0.0mm 0 W/m2
02:32 70 °F /  21.1 °C 58.1 °F /  14.5 °C 29.8in /  1007.5hPa WSW 4.9mph /  7.9km/h 8mph /  12.9km/h 66% 0in /  0.0mm 0 W/m2
02:37 69.6 °F /  20.9 °C 57.7 °F /  14.3 °C 29.8in /  1007.5hPa WNW 2mph /  3.2km/h 11mph /  17.7km/h 66% 0in /  0.0mm 0 W/m2
02:43 69.4 °F /  20.8 °C 57.9 °F /  14.4 °C 29.8in /  1007.5hPa WSW 6.9mph /  11.1km/h 8mph /  12.9km/h 67% 0in /  0.0mm 0 W/m2
02:48 69.3 °F /  20.7 °C 57.9 °F /  14.4 °C 29.8in /  1007.5hPa WNW 19mph /  30.6km/h 21mph /  33.8km/h 67% 0in /  0.0mm 0 W/m2
02:53 69.1 °F /  20.6 °C 57.7 °F /  14.3 °C 29.8in /  1007.5hPa WSW 13mph /  20.9km/h 13mph /  20.9km/h 67% 0in /  0.0mm 0 W/m2
02:58 68.9 °F /  20.5 °C 57.9 °F /  14.4 °C 29.8in /  1007.5hPa North 19mph /  30.6km/h 19mph /  30.6km/h 68% 0in /  0.0mm 0 W/m2
03:03 68.7 °F /  20.4 °C 57.7 °F /  14.3 °C 29.8in /  1007.5hPa WNW 2mph /  3.2km/h 10mph /  16.1km/h 68% 0in /  0.0mm 0 W/m2
03:08 68.5 °F /  20.3 °C 57.6 °F /  14.2 °C 29.8in /  1007.8hPa WNW 4.9mph /  7.9km/h 11mph /  17.7km/h 68% 0in /  0.0mm 0 W/m2
03:13 68.5 °F /  20.3 °C 57.9 °F /  14.4 °C 29.8in /  1007.8hPa WNW 4mph /  6.4km/h 10mph /  16.1km/h 69% 0in /  0.0mm 0 W/m2
03:18 68.4 °F /  20.2 °C 57.7 °F /  14.3 °C 29.8in /  1007.8hPa North 8.9mph /  14.3km/h 13mph /  20.9km/h 69% 0in /  0.0mm 0 W/m2
03:23 68.4 °F /  20.2 °C 58.3 °F /  14.6 °C 29.8in /  1007.8hPa West 6mph /  9.7km/h 9mph /  14.5km/h 70% 0in /  0.0mm 0 W/m2
03:28 68.2 °F /  20.1 °C 58.1 °F /  14.5 °C 29.8in /  1007.8hPa West 4mph /  6.4km/h 6mph /  9.7km/h 70% 0in /  0.0mm 0 W/m2
03:33 67.8 °F /  19.9 °C 58.1 °F /  14.5 °C 29.8in /  1007.8hPa West 6mph /  9.7km/h 9mph /  14.5km/h 71% 0in /  0.0mm 0 W/m2
03:38 67.8 °F /  19.9 °C 58.1 °F /  14.5 °C 29.8in /  1008.1hPa NW 2mph /  3.2km/h 7mph /  11.3km/h 71% 0in /  0.0mm 0 W/m2
03:43 67.6 °F /  19.8 °C 58.3 °F /  14.6 °C 29.8in /  1008.1hPa North 4mph /  6.4km/h 10mph /  16.1km/h 72% 0in /  0.0mm 0 W/m2
03:48 67.6 °F /  19.8 °C 58.3 °F /  14.6 °C 29.8in /  1008.1hPa North 2.9mph /  4.7km/h 11mph /  17.7km/h 72% 0in /  0.0mm 0 W/m2
03:53 67.5 °F /  19.7 °C 58.1 °F /  14.5 °C 29.8in /  1008.5hPa NNW 2.9mph /  4.7km/h 7mph /  11.3km/h 72% 0in /  0.0mm 0 W/m2
03:58 67.5 °F /  19.7 °C 58.5 °F /  14.7 °C 29.8in /  1008.5hPa West 4mph /  6.4km/h 12mph /  19.3km/h 73% 0in /  0.0mm 0 W/m2
04:03 67.5 °F /  19.7 °C 58.5 °F /  14.7 °C 29.8in /  1008.5hPa SW 4mph /  6.4km/h 12mph /  19.3km/h 73% 0in /  0.0mm 0 W/m2
04:08 67.3 °F /  19.6 °C 58.3 °F /  14.6 °C 29.8in /  1008.5hPa West 6mph /  9.7km/h 16mph /  25.7km/h 73% 0in /  0.0mm 0 W/m2
04:13 67.1 °F /  19.5 °C 58.1 °F /  14.5 °C 29.8in /  1008.5hPa NNW 4mph /  6.4km/h 6mph /  9.7km/h 73% 0in /  0.0mm 0 W/m2
04:18 66.9 °F /  19.4 °C 57.9 °F /  14.4 °C 29.8in /  1008.5hPa North 4mph /  6.4km/h 16mph /  25.7km/h 73% 0in /  0.0mm 0 W/m2
04:23 66.7 °F /  19.3 °C 57.7 °F /  14.3 °C 29.8in /  1008.8hPa NNE 4mph /  6.4km/h 11mph /  17.7km/h 73% 0in /  0.0mm 0 W/m2
04:28 66.7 °F /  19.3 °C 57.7 °F /  14.3 °C 29.8in /  1008.8hPa NW 11mph /  17.7km/h 11mph /  17.7km/h 73% 0in /  0.0mm 0 W/m2
04:33 66.6 °F /  19.2 °C 58.1 °F /  14.5 °C 29.8in /  1008.8hPa NW 4.9mph /  7.9km/h 12mph /  19.3km/h 74% 0in /  0.0mm 0 W/m2
04:38 66.4 °F /  19.1 °C 57.9 °F /  14.4 °C 29.8in /  1008.8hPa WSW 4mph /  6.4km/h 10mph /  16.1km/h 74% 0in /  0.0mm 0 W/m2
04:43 66.4 °F /  19.1 °C 57.9 °F /  14.4 °C 29.8in /  1008.8hPa West 11mph /  17.7km/h 14mph /  22.5km/h 74% 0in /  0.0mm 0 W/m2
04:48 66 °F /  18.9 °C 57.6 °F /  14.2 °C 29.8in /  1008.8hPa SSW 0.9mph /  1.4km/h 10mph /  16.1km/h 74% 0in /  0.0mm 0 W/m2
04:53 66 °F /  18.9 °C 57.6 °F /  14.2 °C 29.8in /  1008.8hPa NW 2.9mph /  4.7km/h 10mph /  16.1km/h 74% 0in /  0.0mm 0 W/m2
04:58 65.8 °F /  18.8 °C 57.4 °F /  14.1 °C 29.8in /  1009.1hPa WSW 6mph /  9.7km/h 13mph /  20.9km/h 74% 0in /  0.0mm 0 W/m2
05:03 65.7 °F /  18.7 °C 57.2 °F /  14 °C 29.8in /  1009.1hPa West 4mph /  6.4km/h 14mph /  22.5km/h 74% 0in /  0.0mm 0 W/m2
05:09 65.5 °F /  18.6 °C 57 °F /  13.9 °C 29.8in /  1009.1hPa SE 8.1mph /  13km/h 15mph /  24.1km/h 74% 0in /  0.0mm 0 W/m2
05:14 65.5 °F /  18.6 °C 57 °F /  13.9 °C 29.8in /  1009.1hPa WNW 4mph /  6.4km/h 6mph /  9.7km/h 74% 0in /  0.0mm 0 W/m2
05:19 65.1 °F /  18.4 °C 57 °F /  13.9 °C 29.8in /  1009.1hPa NW 8.9mph /  14.3km/h 16mph /  25.7km/h 75% 0in /  0.0mm 0 W/m2
05:24 64.9 °F /  18.3 °C 56.8 °F /  13.8 °C 29.8in /  1009.1hPa WNW 8.9mph /  14.3km/h 9mph /  14.5km/h 75% 0in /  0.0mm 0 W/m2
05:29 64.9 °F /  18.3 °C 56.8 °F /  13.8 °C 29.8in /  1009.5hPa WNW 2.9mph /  4.7km/h 7mph /  11.3km/h 75% 0in /  0.0mm 0 W/m2
05:34 64.8 °F /  18.2 °C 56.7 °F /  13.7 °C 29.8in /  1009.5hPa West 8.1mph /  13km/h 13mph /  20.9km/h 75% 0in /  0.0mm 0 W/m2
05:39 64.6 °F /  18.1 °C 56.5 °F /  13.6 °C 29.8in /  1009.5hPa WNW 4mph /  6.4km/h 12mph /  19.3km/h 75% 0in /  0.0mm 0 W/m2
05:44 64.4 °F /  18 °C 56.3 °F /  13.5 °C 29.8in /  1009.5hPa NNW 2mph /  3.2km/h 11mph /  17.7km/h 75% 0in /  0.0mm 0 W/m2
05:49 64 °F /  17.8 °C 56.3 °F /  13.5 °C 29.8in /  1009.5hPa WNW 4.9mph /  7.9km/h 10mph /  16.1km/h 76% 0in /  0.0mm 0 W/m2
05:54 64 °F /  17.8 °C 56.3 °F /  13.5 °C 29.8in /  1009.5hPa WNW 6.9mph /  11.1km/h 7mph /  11.3km/h 76% 0in /  0.0mm 0 W/m2
05:59 63.9 °F /  17.7 °C 56.1 °F /  13.4 °C 29.8in /  1009.8hPa WSW 2.9mph /  4.7km/h 10mph /  16.1km/h 76% 0in /  0.0mm 0 W/m2
06:04 63.7 °F /  17.6 °C 56.3 °F /  13.5 °C 29.8in /  1009.8hPa West 2.9mph /  4.7km/h 5mph /  8km/h 77% 0in /  0.0mm 0 W/m2
06:09 63.3 °F /  17.4 °C 55.9 °F /  13.3 °C 29.8in /  1009.8hPa WNW 10.1mph /  16.3km/h 11mph /  17.7km/h 77% 0in /  0.0mm 0 W/m2
06:15 63.1 °F /  17.3 °C 56.1 °F /  13.4 °C 29.8in /  1009.8hPa WNW 8.9mph /  14.3km/h 13mph /  20.9km/h 78% 0in /  0.0mm 0 W/m2
06:20 63.1 °F /  17.3 °C 56.1 °F /  13.4 °C 29.8in /  1009.8hPa NW 8.9mph /  14.3km/h 13mph /  20.9km/h 78% 0in /  0.0mm 0 W/m2
06:25 63 °F /  17.2 °C 55.9 °F /  13.3 °C 29.8in /  1009.8hPa WNW 2.9mph /  4.7km/h 9mph /  14.5km/h 78% 0in /  0.0mm 0 W/m2
06:30 63 °F /  17.2 °C 55.9 °F /  13.3 °C 29.8in /  1009.8hPa WNW 8.1mph /  13km/h 12mph /  19.3km/h 78% 0in /  0.0mm 0 W/m2
06:35 62.8 °F /  17.1 °C 56.1 °F /  13.4 °C 29.8in /  1010.2hPa South 0.9mph /  1.4km/h 12mph /  19.3km/h 79% 0in /  0.0mm 0 W/m2
06:40 62.8 °F /  17.1 °C 56.1 °F /  13.4 °C 29.8in /  1009.8hPa West 8.9mph /  14.3km/h 9mph /  14.5km/h 79% 0in /  0.0mm 0 W/m2
06:45 62.8 °F /  17.1 °C 56.1 °F /  13.4 °C 29.8in /  1010.2hPa WNW 8.9mph /  14.3km/h 12mph /  19.3km/h 79% 0in /  0.0mm 0 W/m2
06:50 62.8 °F /  17.1 °C 56.1 °F /  13.4 °C 29.8in /  1010.2hPa SW 4.9mph /  7.9km/h 11mph /  17.7km/h 79% 0in /  0.0mm 5 W/m2
06:55 62.6 °F /  17 °C 55.9 °F /  13.3 °C 29.8in /  1010.2hPa West 4mph /  6.4km/h 9mph /  14.5km/h 79% 0in /  0.0mm 7 W/m2
07:00 62.6 °F /  17 °C 55.9 °F /  13.3 °C 29.8in /  1010.2hPa West 6mph /  9.7km/h 10mph /  16.1km/h 79% 0in /  0.0mm 11 W/m2
07:05 62.6 °F /  17 °C 55.9 °F /  13.3 °C 29.8in /  1010.2hPa WSW 8.9mph /  14.3km/h 12mph /  19.3km/h 79% 0in /  0.0mm 14 W/m2
07:10 62.6 °F /  17 °C 55.9 °F /  13.3 °C 29.8in /  1010.2hPa West 6mph /  9.7km/h 17mph /  27.4km/h 79% 0in /  0.0mm 14 W/m2
07:15 62.6 °F /  17 °C 55.9 °F /  13.3 °C 29.8in /  1010.2hPa WNW 16.1mph /  25.9km/h 16mph /  25.7km/h 79% 0in /  0.0mm 23 W/m2
07:20 62.6 °F /  17 °C 55.9 °F /  13.3 °C 29.8in /  1010.2hPa NW 6.9mph /  11.1km/h 9mph /  14.5km/h 79% 0in /  0.0mm 21 W/m2
07:25 62.8 °F /  17.1 °C 56.1 °F /  13.4 °C 29.8in /  1010.2hPa NW 6mph /  9.7km/h 15mph /  24.1km/h 79% 0in /  0.0mm 25 W/m2
07:30 62.8 °F /  17.1 °C 56.1 °F /  13.4 °C 29.8in /  1010.2hPa SW 6mph /  9.7km/h 10mph /  16.1km/h 79% 0in /  0.0mm 33 W/m2
07:35 62.8 °F /  17.1 °C 56.1 °F /  13.4 °C 29.8in /  1010.5hPa West 6.9mph /  11.1km/h 15mph /  24.1km/h 79% 0in /  0.0mm 21 W/m2
07:40 62.8 °F /  17.1 °C 56.1 °F /  13.4 °C 29.8in /  1010.5hPa WNW 8.9mph /  14.3km/h 11mph /  17.7km/h 79% 0in /  0.0mm 39 W/m2
07:45 62.8 °F /  17.1 °C 56.1 °F /  13.4 °C 29.9in /  1010.8hPa WNW 6.9mph /  11.1km/h 15mph /  24.1km/h 79% 0in /  0.0mm 49 W/m2
07:50 62.8 °F /  17.1 °C 55.8 °F /  13.2 °C 29.9in /  1010.8hPa WNW 8.1mph /  13km/h 12mph /  19.3km/h 78% 0in /  0.0mm 56 W/m2
07:55 62.8 °F /  17.1 °C 56.1 °F /  13.4 °C 29.9in /  1010.8hPa West 6mph /  9.7km/h 10mph /  16.1km/h 79% 0in /  0.0mm 44 W/m2
08:00 62.8 °F /  17.1 °C 55.8 °F /  13.2 °C 29.9in /  1010.8hPa West 8.1mph /  13km/h 16mph /  25.7km/h 78% 0in /  0.0mm 49 W/m2
08:05 62.8 °F /  17.1 °C 55.8 °F /  13.2 °C 29.9in /  1011.2hPa West 8.1mph /  13km/h 9mph /  14.5km/h 78% 0in /  0.0mm 84 W/m2
08:10 63 °F /  17.2 °C 55.9 °F /  13.3 °C 29.9in /  1010.8hPa West 2.9mph /  4.7km/h 16mph /  25.7km/h 78% 0in /  0.0mm 91 W/m2
08:15 63.1 °F /  17.3 °C 56.1 °F /  13.4 °C 29.9in /  1011.2hPa NW 4.9mph /  7.9km/h 8mph /  12.9km/h 78% 0in /  0.0mm 81 W/m2
08:20 63.1 °F /  17.3 °C 55.8 °F /  13.2 °C 29.9in /  1011.2hPa West 6mph /  9.7km/h 8mph /  12.9km/h 77% 0in /  0.0mm 104 W/m2
08:25 63.1 °F /  17.3 °C 55.8 °F /  13.2 °C 29.9in /  1011.2hPa NW 4mph /  6.4km/h 14mph /  22.5km/h 77% 0in /  0.0mm 76 W/m2
08:30 63.1 °F /  17.3 °C 55.8 °F /  13.2 °C 29.9in /  1011.2hPa NW 12.1mph /  19.5km/h 13mph /  20.9km/h 77% 0in /  0.0mm 93 W/m2
08:35 63.1 °F /  17.3 °C 55.8 °F /  13.2 °C 29.9in /  1011.2hPa WNW 8.1mph /  13km/h 8mph /  12.9km/h 77% 0in /  0.0mm 100 W/m2
08:40 63.3 °F /  17.4 °C 55.6 °F /  13.1 °C 29.9in /  1011.5hPa West 10.1mph /  16.3km/h 13mph /  20.9km/h 76% 0in /  0.0mm 86 W/m2
08:45 63.5 °F /  17.5 °C 55.4 °F /  13 °C 29.9in /  1011.5hPa SW 10.1mph /  16.3km/h 11mph /  17.7km/h 75% 0in /  0.0mm 142 W/m2
08:50 63.7 °F /  17.6 °C 55.6 °F /  13.1 °C 29.9in /  1011.5hPa West 6.9mph /  11.1km/h 8mph /  12.9km/h 75% 0in /  0.0mm 111 W/m2
08:55 63.7 °F /  17.6 °C 55.2 °F /  12.9 °C 29.9in /  1011.9hPa West 12.1mph /  19.5km/h 13mph /  20.9km/h 74% 0in /  0.0mm 118 W/m2
09:00 63.7 °F /  17.6 °C 55.2 °F /  12.9 °C 29.9in /  1011.9hPa West 8.1mph /  13km/h 15mph /  24.1km/h 74% 0in /  0.0mm 144 W/m2
09:05 63.7 °F /  17.6 °C 54.9 °F /  12.7 °C 29.9in /  1011.9hPa NW 2.9mph /  4.7km/h 12mph /  19.3km/h 73% 0in /  0.0mm 91 W/m2
09:10 63.7 °F /  17.6 °C 54.5 °F /  12.5 °C 29.9in /  1011.9hPa WNW 4.9mph /  7.9km/h 15mph /  24.1km/h 72% 0in /  0.0mm 211 W/m2
09:15 63.9 °F /  17.7 °C 55 °F /  12.8 °C 29.9in /  1011.9hPa WNW 4.9mph /  7.9km/h 12mph /  19.3km/h 73% 0in /  0.0mm 309 W/m2
09:20 64 °F /  17.8 °C 54.1 °F /  12.3 °C 29.9in /  1011.9hPa WNW 8.1mph /  13km/h 20mph /  32.2km/h 70% 0in /  0.0mm 169 W/m2
09:25 64.4 °F /  18 °C 54 °F /  12.2 °C 29.9in /  1011.9hPa WNW 8.1mph /  13km/h 10mph /  16.1km/h 69% 0in /  0.0mm 156 W/m2
09:30 64.9 °F /  18.3 °C 54.5 °F /  12.5 °C 29.9in /  1011.9hPa WSW 15mph /  24.1km/h 18mph /  29km/h 69% 0in /  0.0mm 295 W/m2
09:35 64.9 °F /  18.3 °C 54.1 °F /  12.3 °C 29.9in /  1012.2hPa WNW 10.1mph /  16.3km/h 14mph /  22.5km/h 68% 0in /  0.0mm 105 W/m2
09:40 64.6 °F /  18.1 °C 54.1 °F /  12.3 °C 29.9in /  1012.2hPa WNW 10.1mph /  16.3km/h 11mph /  17.7km/h 69% 0in /  0.0mm 127 W/m2
09:45 64.2 °F /  17.9 °C 54.3 °F /  12.4 °C 29.9in /  1012.2hPa WNW 8.1mph /  13km/h 12mph /  19.3km/h 70% 0in /  0.0mm 216 W/m2
09:50 64.4 °F /  18 °C 54 °F /  12.2 °C 29.9in /  1012.2hPa West 2mph /  3.2km/h 10mph /  16.1km/h 69% 0in /  0.0mm 162 W/m2
09:55 64.4 °F /  18 °C 53.6 °F /  12 °C 29.9in /  1012.5hPa WSW 11mph /  17.7km/h 15mph /  24.1km/h 68% 0in /  0.0mm 156 W/m2
10:00 64.4 °F /  18 °C 53.6 °F /  12 °C 29.9in /  1012.5hPa NW 6mph /  9.7km/h 11mph /  17.7km/h 68% 0in /  0.0mm 132 W/m2
10:05 64.4 °F /  18 °C 53.6 °F /  12 °C 29.9in /  1012.9hPa SSW 6mph /  9.7km/h 8mph /  12.9km/h 68% 0in /  0.0mm 116 W/m2
10:10 64.4 °F /  18 °C 53.2 °F /  11.8 °C 29.9in /  1012.9hPa WNW 6.9mph /  11.1km/h 12mph /  19.3km/h 67% 0in /  0.0mm 120 W/m2
10:15 64.4 °F /  18 °C 53.2 °F /  11.8 °C 29.9in /  1012.9hPa West 2.9mph /  4.7km/h 14mph /  22.5km/h 67% 0in /  0.0mm 171 W/m2
10:20 64.6 °F /  18.1 °C 53.4 °F /  11.9 °C 29.9in /  1012.9hPa West 6mph /  9.7km/h 9mph /  14.5km/h 67% 0in /  0.0mm 176 W/m2
10:25 64.8 °F /  18.2 °C 53.6 °F /  12 °C 29.9in /  1012.9hPa SSW 4.9mph /  7.9km/h 11mph /  17.7km/h 67% 0in /  0.0mm 239 W/m2
10:30 65.1 °F /  18.4 °C 53.1 °F /  11.7 °C 29.9in /  1012.9hPa West 10.1mph /  16.3km/h 14mph /  22.5km/h 65% 0in /  0.0mm 190 W/m2
10:35 65.1 °F /  18.4 °C 52.7 °F /  11.5 °C 29.9in /  1012.9hPa NW 8.1mph /  13km/h 12mph /  19.3km/h 64% 0in /  0.0mm 232 W/m2
10:40 65.1 °F /  18.4 °C 52.7 °F /  11.5 °C 29.9in /  1012.9hPa NNW 2.9mph /  4.7km/h 14mph /  22.5km/h 64% 0in /  0.0mm 234 W/m2
10:46 65.7 °F /  18.7 °C 53.6 °F /  12 °C 29.9in /  1012.9hPa West 6.9mph /  11.1km/h 18mph /  29km/h 65% 0in /  0.0mm 223 W/m2
10:51 65.7 °F /  18.7 °C 53.2 °F /  11.8 °C 29.9in /  1012.9hPa WSW 8.1mph /  13km/h 13mph /  20.9km/h 64% 0in /  0.0mm 320 W/m2
10:56 66 °F /  18.9 °C 53.1 °F /  11.7 °C 29.9in /  1012.9hPa WNW 11mph /  17.7km/h 18mph /  29km/h 63% 0in /  0.0mm 246 W/m2
11:01 66 °F /  18.9 °C 53.4 °F /  11.9 °C 29.9in /  1012.9hPa West 2.9mph /  4.7km/h 10mph /  16.1km/h 64% 0in /  0.0mm 272 W/m2
11:06 66.4 °F /  19.1 °C 53.8 °F /  12.1 °C 29.9in /  1012.9hPa WSW 2.9mph /  4.7km/h 9mph /  14.5km/h 64% 0in /  0.0mm 230 W/m2
11:11 66.4 °F /  19.1 °C 53.4 °F /  11.9 °C 29.9in /  1013.2hPa WSW 4mph /  6.4km/h 20mph /  32.2km/h 63% 0in /  0.0mm 197 W/m2
11:16 66 °F /  18.9 °C 53.4 °F /  11.9 °C 29.9in /  1013.2hPa WNW 11mph /  17.7km/h 16mph /  25.7km/h 64% 0in /  0.0mm 367 W/m2
11:21 66.4 °F /  19.1 °C 53.8 °F /  12.1 °C 29.9in /  1013.2hPa West 10.1mph /  16.3km/h 14mph /  22.5km/h 64% 0in /  0.0mm 243 W/m2
11:26 66.2 °F /  19 °C 53.2 °F /  11.8 °C 29.9in /  1013.5hPa WSW 4.9mph /  7.9km/h 10mph /  16.1km/h 63% 0in /  0.0mm 218 W/m2
11:31 66 °F /  18.9 °C 53.4 °F /  11.9 °C 29.9in /  1013.5hPa NW 8.1mph /  13km/h 11mph /  17.7km/h 64% 0in /  0.0mm 260 W/m2
11:36 66 °F /  18.9 °C 53.4 °F /  11.9 °C 29.9in /  1013.5hPa WSW 2.9mph /  4.7km/h 7mph /  11.3km/h 64% 0in /  0.0mm 295 W/m2
11:41 66 °F /  18.9 °C 53.1 °F /  11.7 °C 29.9in /  1013.5hPa WSW 6mph /  9.7km/h 17mph /  27.4km/h 63% 0in /  0.0mm 241 W/m2
11:46 66 °F /  18.9 °C 53.4 °F /  11.9 °C 29.9in /  1013.5hPa WSW 4mph /  6.4km/h 8mph /  12.9km/h 64% 0in /  0.0mm 271 W/m2
11:52 66 °F /  18.9 °C 53.1 °F /  11.7 °C 29.9in /  1013.5hPa West 8.1mph /  13km/h 19mph /  30.6km/h 63% 0in /  0.0mm 306 W/m2
11:57 66.2 °F /  19 °C 53.6 °F /  12 °C 29.9in /  1013.5hPa North 8.9mph /  14.3km/h 12mph /  19.3km/h 64% 0in /  0.0mm 338 W/m2
12:02 66.4 °F /  19.1 °C 53.4 °F /  11.9 °C 29.9in /  1013.5hPa SSW 8.1mph /  13km/h 19mph /  30.6km/h 63% 0in /  0.0mm 251 W/m2
12:07 66.6 °F /  19.2 °C 53.1 °F /  11.7 °C 29.9in /  1013.5hPa WNW 8.9mph /  14.3km/h 17mph /  27.4km/h 62% 0in /  0.0mm 262 W/m2
12:12 66.6 °F /  19.2 °C 53.6 °F /  12 °C 29.9in /  1013.9hPa West 8.1mph /  13km/h 18mph /  29km/h 63% 0in /  0.0mm 318 W/m2
12:17 66.9 °F /  19.4 °C 53.4 °F /  11.9 °C 29.9in /  1013.5hPa West 6.9mph /  11.1km/h 12mph /  19.3km/h 62% 0in /  0.0mm 311 W/m2
12:22 67.5 °F /  19.7 °C 54 °F /  12.2 °C 29.9in /  1013.5hPa WNW 15mph /  24.1km/h 15mph /  24.1km/h 62% 0in /  0.0mm 294 W/m2
12:27 67.5 °F /  19.7 °C 53.6 °F /  12 °C 29.9in /  1013.5hPa West 14.1mph /  22.7km/h 17mph /  27.4km/h 61% 0in /  0.0mm 311 W/m2
12:32 67.6 °F /  19.8 °C 53.8 °F /  12.1 °C 29.9in /  1013.5hPa WSW 13mph /  20.9km/h 13mph /  20.9km/h 61% 0in /  0.0mm 429 W/m2
12:37 67.6 °F /  19.8 °C 53.8 °F /  12.1 °C 29.9in /  1013.9hPa West 4mph /  6.4km/h 17mph /  27.4km/h 61% 0in /  0.0mm 322 W/m2
12:42 67.6 °F /  19.8 °C 54.1 °F /  12.3 °C 29.9in /  1013.5hPa West 4mph /  6.4km/h 10mph /  16.1km/h 62% 0in /  0.0mm 292 W/m2
12:48 67.8 °F /  19.9 °C 53.4 °F /  11.9 °C 29.9in /  1013.9hPa NW 10.1mph /  16.3km/h 14mph /  22.5km/h 60% 0in /  0.0mm 422 W/m2
12:53 68.5 °F /  20.3 °C 54.1 °F /  12.3 °C 29.9in /  1013.5hPa NW 15mph /  24.1km/h 15mph /  24.1km/h 60% 0in /  0.0mm 977 W/m2
12:58 69.1 °F /  20.6 °C 54.1 °F /  12.3 °C 29.9in /  1013.9hPa WNW 4mph /  6.4km/h 15mph /  24.1km/h 59% 0in /  0.0mm 995 W/m2
13:03 69.1 °F /  20.6 °C 53.6 °F /  12 °C 29.9in /  1013.5hPa NW 10.1mph /  16.3km/h 15mph /  24.1km/h 58% 0in /  0.0mm 288 W/m2
13:08 68.7 °F /  20.4 °C 53.4 °F /  11.9 °C 29.9in /  1013.9hPa NW 6.9mph /  11.1km/h 16mph /  25.7km/h 58% 0in /  0.0mm 279 W/m2
13:13 68.7 °F /  20.4 °C 53.4 °F /  11.9 °C 29.9in /  1013.5hPa SSW 8.1mph /  13km/h 13mph /  20.9km/h 58% 0in /  0.0mm 253 W/m2
13:18 68.5 °F /  20.3 °C 53.2 °F /  11.8 °C 29.9in /  1013.5hPa NW 11mph /  17.7km/h 15mph /  24.1km/h 58% 0in /  0.0mm 255 W/m2
13:24 68.7 °F /  20.4 °C 53.4 °F /  11.9 °C 29.9in /  1013.5hPa WSW 8.1mph /  13km/h 11mph /  17.7km/h 58% 0in /  0.0mm 279 W/m2
13:29 68.7 °F /  20.4 °C 53.4 °F /  11.9 °C 29.9in /  1013.5hPa WNW 4.9mph /  7.9km/h 16mph /  25.7km/h 58% 0in /  0.0mm 237 W/m2
13:34 69.3 °F /  20.7 °C 53.4 °F /  11.9 °C 29.9in /  1013.5hPa WNW 16.1mph /  25.9km/h 16mph /  25.7km/h 57% 0in /  0.0mm 974 W/m2
13:39 69.1 °F /  20.6 °C 52.7 °F /  11.5 °C 29.9in /  1013.9hPa NNW 2mph /  3.2km/h 22mph /  35.4km/h 56% 0in /  0.0mm 299 W/m2
13:44 69.6 °F /  20.9 °C 53.2 °F /  11.8 °C 29.9in /  1013.9hPa WSW 10.1mph /  16.3km/h 13mph /  20.9km/h 56% 0in /  0.0mm 299 W/m2
13:49 70 °F /  21.1 °C 53.6 °F /  12 °C 29.9in /  1013.9hPa North 17mph /  27.4km/h 17mph /  27.4km/h 56% 0in /  0.0mm 779 W/m2
13:54 70.5 °F /  21.4 °C 53.6 °F /  12 °C 29.9in /  1013.5hPa West 8.9mph /  14.3km/h 11mph /  17.7km/h 55% 0in /  0.0mm 867 W/m2
13:59 71.1 °F /  21.7 °C 54.1 °F /  12.3 °C 29.9in /  1013.5hPa WNW 4.9mph /  7.9km/h 7mph /  11.3km/h 55% 0in /  0.0mm 860 W/m2
14:04 71.4 °F /  21.9 °C 53.4 °F /  11.9 °C 29.9in /  1013.5hPa NW 17mph /  27.4km/h 17mph /  27.4km/h 53% 0in /  0.0mm 863 W/m2
14:09 71.8 °F /  22.1 °C 53.8 °F /  12.1 °C 29.9in /  1013.5hPa WNW 4mph /  6.4km/h 9mph /  14.5km/h 53% 0in /  0.0mm 1051 W/m2
14:14 72.1 °F /  22.3 °C 53.6 °F /  12 °C 29.9in /  1013.9hPa NW 8.1mph /  13km/h 11mph /  17.7km/h 52% 0in /  0.0mm 360 W/m2
14:19 72 °F /  22.2 °C 53.4 °F /  11.9 °C 29.9in /  1013.9hPa WNW 11mph /  17.7km/h 18mph /  29km/h 52% 0in /  0.0mm 933 W/m2
14:24 72 °F /  22.2 °C 53.4 °F /  11.9 °C 29.9in /  1013.9hPa NNW 11mph /  17.7km/h 14mph /  22.5km/h 52% 0in /  0.0mm 276 W/m2
14:29 72 °F /  22.2 °C 53.4 °F /  11.9 °C 29.9in /  1013.9hPa West 13mph /  20.9km/h 18mph /  29km/h 52% 0in /  0.0mm 248 W/m2
14:34 71.2 °F /  21.8 °C 53.2 °F /  11.8 °C 30in /  1014.2hPa WNW 8.1mph /  13km/h 15mph /  24.1km/h 53% 0in /  0.0mm 983 W/m2
14:39 71.8 °F /  22.1 °C 53.2 °F /  11.8 °C 30in /  1014.2hPa SW 2.9mph /  4.7km/h 13mph /  20.9km/h 52% 0in /  0.0mm 281 W/m2
14:44 71.8 °F /  22.1 °C 53.2 °F /  11.8 °C 30in /  1014.2hPa NW 4.9mph /  7.9km/h 12mph /  19.3km/h 52% 0in /  0.0mm 352 W/m2
14:49 72.3 °F /  22.4 °C 53.8 °F /  12.1 °C 30in /  1014.2hPa WNW 10.1mph /  16.3km/h 15mph /  24.1km/h 52% 0in /  0.0mm 279 W/m2
14:54 72.7 °F /  22.6 °C 54 °F /  12.2 °C 30in /  1014.2hPa WNW 8.1mph /  13km/h 8mph /  12.9km/h 52% 0in /  0.0mm 279 W/m2
14:59 72 °F /  22.2 °C 52.9 °F /  11.6 °C 30in /  1014.2hPa West 8.9mph /  14.3km/h 17mph /  27.4km/h 51% 0in /  0.0mm 239 W/m2
15:04 71.4 °F /  21.9 °C 52.9 °F /  11.6 °C 30in /  1014.2hPa SW 6.9mph /  11.1km/h 11mph /  17.7km/h 52% 0in /  0.0mm 183 W/m2
15:09 71.2 °F /  21.8 °C 52.7 °F /  11.5 °C 30in /  1014.6hPa WSW 4mph /  6.4km/h 11mph /  17.7km/h 52% 0in /  0.0mm 271 W/m2
15:14 71.8 °F /  22.1 °C 53.2 °F /  11.8 °C 30in /  1014.2hPa West 12.1mph /  19.5km/h 12mph /  19.3km/h 52% 0in /  0.0mm 234 W/m2
15:19 72.1 °F /  22.3 °C 53.6 °F /  12 °C 30in /  1014.2hPa WSW 8.1mph /  13km/h 11mph /  17.7km/h 52% 0in /  0.0mm 826 W/m2
15:24 72.3 °F /  22.4 °C 53.2 °F /  11.8 °C 30in /  1014.6hPa NW 8.1mph /  13km/h 15mph /  24.1km/h 51% 0in /  0.0mm 237 W/m2
15:29 72.7 °F /  22.6 °C 52.9 °F /  11.6 °C 30in /  1014.6hPa WNW 10.1mph /  16.3km/h 15mph /  24.1km/h 50% 0in /  0.0mm 835 W/m2
15:34 72.9 °F /  22.7 °C 53.1 °F /  11.7 °C 30in /  1014.6hPa WNW 6mph /  9.7km/h 23mph /  37km/h 50% 0in /  0.0mm 288 W/m2
15:39 72.9 °F /  22.7 °C 53.1 °F /  11.7 °C 30in /  1014.6hPa WNW 15mph /  24.1km/h 19mph /  30.6km/h 50% 0in /  0.0mm 810 W/m2
15:44 72.7 °F /  22.6 °C 53.4 °F /  11.9 °C 30in /  1014.6hPa NNW 4mph /  6.4km/h 9mph /  14.5km/h 51% 0in /  0.0mm 737 W/m2
15:49 73 °F /  22.8 °C 53.2 °F /  11.8 °C 30in /  1014.6hPa West 6mph /  9.7km/h 17mph /  27.4km/h 50% 0in /  0.0mm 195 W/m2
15:54 73.2 °F /  22.9 °C 53.4 °F /  11.9 °C 30in /  1014.6hPa West 2mph /  3.2km/h 12mph /  19.3km/h 50% 0in /  0.0mm 190 W/m2
15:59 73 °F /  22.8 °C 53.2 °F /  11.8 °C 30in /  1014.6hPa WNW 13mph /  20.9km/h 18mph /  29km/h 50% 0in /  0.0mm 830 W/m2
16:04 72.7 °F /  22.6 °C 52.9 °F /  11.6 °C 30in /  1014.6hPa West 11mph /  17.7km/h 11mph /  17.7km/h 50% 0in /  0.0mm 257 W/m2
16:09 72.7 °F /  22.6 °C 52.9 °F /  11.6 °C 30in /  1014.6hPa West 11mph /  17.7km/h 18mph /  29km/h 50% 0in /  0.0mm 257 W/m2
16:14 72.7 °F /  22.6 °C 52.9 °F /  11.6 °C 30in /  1014.6hPa NNW 8.1mph /  13km/h 12mph /  19.3km/h 50% 0in /  0.0mm 171 W/m2
16:19 73 °F /  22.8 °C 52.7 °F /  11.5 °C 30in /  1014.6hPa WSW 11mph /  17.7km/h 16mph /  25.7km/h 49% 0in /  0.0mm 793 W/m2
16:24 73.6 °F /  23.1 °C 53.2 °F /  11.8 °C 30in /  1014.6hPa WNW 11mph /  17.7km/h 17mph /  27.4km/h 49% 0in /  0.0mm 684 W/m2
16:29 73.4 °F /  23 °C 53.1 °F /  11.7 °C 30in /  1014.6hPa West 13mph /  20.9km/h 14mph /  22.5km/h 49% 0in /  0.0mm 617 W/m2
16:34 73.6 °F /  23.1 °C 53.2 °F /  11.8 °C 30in /  1014.6hPa SW 6.9mph /  11.1km/h 17mph /  27.4km/h 49% 0in /  0.0mm 624 W/m2
16:39 74.1 °F /  23.4 °C 53.8 °F /  12.1 °C 30in /  1014.6hPa NNE 8.9mph /  14.3km/h 10mph /  16.1km/h 49% 0in /  0.0mm 592 W/m2
16:44 73.9 °F /  23.3 °C 53.1 °F /  11.7 °C 30in /  1014.6hPa West 10.1mph /  16.3km/h 11mph /  17.7km/h 48% 0in /  0.0mm 311 W/m2
16:49 73.9 °F /  23.3 °C 53.1 °F /  11.7 °C 30in /  1014.9hPa West 8.9mph /  14.3km/h 15mph /  24.1km/h 48% 0in /  0.0mm 561 W/m2
16:54 73.8 °F /  23.2 °C 52.9 °F /  11.6 °C 30in /  1014.6hPa SW 11mph /  17.7km/h 11mph /  17.7km/h 48% 0in /  0.0mm 624 W/m2
16:59 74.1 °F /  23.4 °C 53.2 °F /  11.8 °C 30in /  1014.6hPa WNW 4.9mph /  7.9km/h 15mph /  24.1km/h 48% 0in /  0.0mm 613 W/m2
17:04 74.3 °F /  23.5 °C 53.4 °F /  11.9 °C 30in /  1014.9hPa NE 2mph /  3.2km/h 10mph /  16.1km/h 48% 0in /  0.0mm 626 W/m2
17:09 74.1 °F /  23.4 °C 53.2 °F /  11.8 °C 30in /  1014.9hPa NNW 10.1mph /  16.3km/h 11mph /  17.7km/h 48% 0in /  0.0mm 582 W/m2
17:14 74.3 °F /  23.5 °C 52.7 °F /  11.5 °C 30in /  1014.9hPa WSW 4.9mph /  7.9km/h 15mph /  24.1km/h 47% 0in /  0.0mm 552 W/m2
17:19 74.7 °F /  23.7 °C 53.1 °F /  11.7 °C 30in /  1014.9hPa WNW 4mph /  6.4km/h 7mph /  11.3km/h 47% 0in /  0.0mm 520 W/m2
17:24 74.8 °F /  23.8 °C 52.7 °F /  11.5 °C 30in /  1014.9hPa West 4mph /  6.4km/h 14mph /  22.5km/h 46% 0in /  0.0mm 533 W/m2
17:29 74.3 °F /  23.5 °C 52.7 °F /  11.5 °C 30in /  1014.9hPa WSW 12.1mph /  19.5km/h 14mph /  22.5km/h 47% 0in /  0.0mm 128 W/m2
17:34 73.9 °F /  23.3 °C 52.5 °F /  11.4 °C 30in /  1014.9hPa NW 10.1mph /  16.3km/h 10mph /  16.1km/h 47% 0in /  0.0mm 114 W/m2
17:39 73.2 °F /  22.9 °C 52.3 °F /  11.3 °C 30in /  1014.9hPa West 8.1mph /  13km/h 14mph /  22.5km/h 48% 0in /  0.0mm 109 W/m2
17:44 73 °F /  22.8 °C 52.7 °F /  11.5 °C 30in /  1014.9hPa WSW 4.9mph /  7.9km/h 9mph /  14.5km/h 49% 0in /  0.0mm 98 W/m2
17:49 72.9 °F /  22.7 °C 52 °F /  11.1 °C 30in /  1015.2hPa WNW 6.9mph /  11.1km/h 12mph /  19.3km/h 48% 0in /  0.0mm 97 W/m2
17:54 72.9 °F /  22.7 °C 52.5 °F /  11.4 °C 30in /  1014.9hPa West 8.9mph /  14.3km/h 9mph /  14.5km/h 49% 0in /  0.0mm 98 W/m2
17:59 72.9 °F /  22.7 °C 52.5 °F /  11.4 °C 30in /  1015.2hPa WNW 4mph /  6.4km/h 16mph /  25.7km/h 49% 0in /  0.0mm 165 W/m2
18:04 72.7 °F /  22.6 °C 51.8 °F /  11 °C 30in /  1015.2hPa WNW 8.9mph /  14.3km/h 14mph /  22.5km/h 48% 0in /  0.0mm 107 W/m2
18:09 72.7 °F /  22.6 °C 51.8 °F /  11 °C 30in /  1015.2hPa NW 8.1mph /  13km/h 9mph /  14.5km/h 48% 0in /  0.0mm 137 W/m2
18:14 73 °F /  22.8 °C 52.7 °F /  11.5 °C 30in /  1015.2hPa West 6mph /  9.7km/h 9mph /  14.5km/h 49% 0in /  0.0mm 325 W/m2
18:20 73 °F /  22.8 °C 52.2 °F /  11.2 °C 30in /  1015.2hPa West 8.1mph /  13km/h 8mph /  12.9km/h 48% 0in /  0.0mm 309 W/m2
18:25 73.4 °F /  23 °C 52 °F /  11.1 °C 30in /  1015.2hPa NW 4.9mph /  7.9km/h 10mph /  16.1km/h 47% 0in /  0.0mm 378 W/m2
18:30 72.9 °F /  22.7 °C 52 °F /  11.1 °C 30in /  1015.2hPa NW 4mph /  6.4km/h 13mph /  20.9km/h 48% 0in /  0.0mm 88 W/m2
18:35 72.7 °F /  22.6 °C 51.8 °F /  11 °C 30in /  1015.2hPa West 6mph /  9.7km/h 8mph /  12.9km/h 48% 0in /  0.0mm 158 W/m2
18:40 72.5 °F /  22.5 °C 52.3 °F /  11.3 °C 30in /  1015.2hPa NW 4mph /  6.4km/h 8mph /  12.9km/h 49% 0in /  0.0mm 111 W/m2
18:45 72.5 °F /  22.5 °C 52.3 °F /  11.3 °C 30in /  1015.6hPa NW 15mph /  24.1km/h 15mph /  24.1km/h 49% 0in /  0.0mm 100 W/m2
18:50 72.3 °F /  22.4 °C 52.2 °F /  11.2 °C 30in /  1015.2hPa NW 4.9mph /  7.9km/h 8mph /  12.9km/h 49% 0in /  0.0mm 70 W/m2
18:55 72.1 °F /  22.3 °C 52 °F /  11.1 °C 30in /  1015.2hPa SW 2mph /  3.2km/h 9mph /  14.5km/h 49% 0in /  0.0mm 174 W/m2
19:00 72.1 °F /  22.3 °C 52.5 °F /  11.4 °C 30in /  1015.6hPa SW 6.9mph /  11.1km/h 7mph /  11.3km/h 50% 0in /  0.0mm 165 W/m2
19:05 72.1 °F /  22.3 °C 52 °F /  11.1 °C 30in /  1015.6hPa WSW 4.9mph /  7.9km/h 13mph /  20.9km/h 49% 0in /  0.0mm 76 W/m2
19:10 72 °F /  22.2 °C 52.3 °F /  11.3 °C 30in /  1015.6hPa WSW 2mph /  3.2km/h 7mph /  11.3km/h 50% 0in /  0.0mm 174 W/m2
19:15 72.1 °F /  22.3 °C 52.5 °F /  11.4 °C 30in /  1015.6hPa West 2mph /  3.2km/h 4mph /  6.4km/h 50% 0in /  0.0mm 70 W/m2
19:20 72.1 °F /  22.3 °C 52.5 °F /  11.4 °C 30in /  1015.6hPa West 2.9mph /  4.7km/h 7mph /  11.3km/h 50% 0in /  0.0mm 137 W/m2
19:25 72.1 °F /  22.3 °C 52.5 °F /  11.4 °C 30in /  1015.6hPa WNW 2.9mph /  4.7km/h 4mph /  6.4km/h 50% 0in /  0.0mm 114 W/m2
19:30 72.1 °F /  22.3 °C 52.5 °F /  11.4 °C 30in /  1015.6hPa WSW 6.9mph /  11.1km/h 10mph /  16.1km/h 50% 0in /  0.0mm 62 W/m2
19:35 71.8 °F /  22.1 °C 52.2 °F /  11.2 °C 30in /  1015.6hPa West 4mph /  6.4km/h 8mph /  12.9km/h 50% 0in /  0.0mm 93 W/m2
19:40 71.6 °F /  22 °C 52 °F /  11.1 °C 30in /  1015.9hPa WNW 2mph /  3.2km/h 9mph /  14.5km/h 50% 0in /  0.0mm 49 W/m2
19:45 71.4 °F /  21.9 °C 51.8 °F /  11 °C 30in /  1015.9hPa WNW 2.9mph /  4.7km/h 7mph /  11.3km/h 50% 0in /  0.0mm 60 W/m2
19:50 71.2 °F /  21.8 °C 52.2 °F /  11.2 °C 30in /  1015.9hPa West 4mph /  6.4km/h 9mph /  14.5km/h 51% 0in /  0.0mm 28 W/m2
19:55 71.1 °F /  21.7 °C 52 °F /  11.1 °C 30in /  1015.9hPa WSW 6mph /  9.7km/h 6mph /  9.7km/h 51% 0in /  0.0mm 28 W/m2
20:00 70.9 °F /  21.6 °C 51.8 °F /  11 °C 30in /  1015.9hPa WSW 4.9mph /  7.9km/h 9mph /  14.5km/h 51% 0in /  0.0mm 21 W/m2
20:05 70.5 °F /  21.4 °C 51.4 °F /  10.8 °C 30in /  1015.9hPa West 4mph /  6.4km/h 9mph /  14.5km/h 51% 0in /  0.0mm 18 W/m2
20:10 70.5 °F /  21.4 °C 51.4 °F /  10.8 °C 30in /  1016.3hPa NW 4.9mph /  7.9km/h 8mph /  12.9km/h 51% 0in /  0.0mm 12 W/m2
20:15 70.3 °F /  21.3 °C 51.4 °F /  10.8 °C 30in /  1016.3hPa NW 2.9mph /  4.7km/h 9mph /  14.5km/h 51% 0in /  0.0mm 9 W/m2
20:20 70.3 °F /  21.3 °C 51.4 °F /  10.8 °C 30in /  1016.3hPa WSW 4.9mph /  7.9km/h 7mph /  11.3km/h 51% 0in /  0.0mm 7 W/m2
20:25 70.2 °F /  21.2 °C 51.3 °F /  10.7 °C 30in /  1016.3hPa West 2mph /  3.2km/h 7mph /  11.3km/h 51% 0in /  0.0mm 5 W/m2
20:30 69.8 °F /  21 °C 51.4 °F /  10.8 °C 30in /  1016.3hPa WNW 2mph /  3.2km/h 4mph /  6.4km/h 52% 0in /  0.0mm 0 W/m2
20:35 69.4 °F /  20.8 °C 51.6 °F /  10.9 °C 30in /  1016.3hPa WSW 2.9mph /  4.7km/h 4mph /  6.4km/h 53% 0in /  0.0mm 0 W/m2
20:40 69.3 °F /  20.7 °C 51.4 °F /  10.8 °C 30in /  1016.3hPa West 2mph /  3.2km/h 4mph /  6.4km/h 53% 0in /  0.0mm 0 W/m2
20:45 69.1 °F /  20.6 °C 51.8 °F /  11 °C 30in /  1016.3hPa West 2.9mph /  4.7km/h 9mph /  14.5km/h 54% 0in /  0.0mm 0 W/m2
20:50 68.9 °F /  20.5 °C 51.6 °F /  10.9 °C 30in /  1016.6hPa West 4mph /  6.4km/h 6mph /  9.7km/h 54% 0in /  0.0mm 0 W/m2
20:55 68.7 °F /  20.4 °C 52 °F /  11.1 °C 30in /  1016.6hPa WSW 4mph /  6.4km/h 9mph /  14.5km/h 55% 0in /  0.0mm 0 W/m2
21:00 68.5 °F /  20.3 °C 51.8 °F /  11 °C 30in /  1016.3hPa WSW 2.9mph /  4.7km/h 4mph /  6.4km/h 55% 0in /  0.0mm 0 W/m2
21:05 68.4 °F /  20.2 °C 51.6 °F /  10.9 °C 30in /  1016.6hPa West 2mph /  3.2km/h 3mph /  4.8km/h 55% 0in /  0.0mm 0 W/m2
21:10 68.4 °F /  20.2 °C 52 °F /  11.1 °C 30in /  1016.6hPa SW 2.9mph /  4.7km/h 4mph /  6.4km/h 56% 0in /  0.0mm 0 W/m2
21:15 68 °F /  20 °C 51.8 °F /  11 °C 30in /  1016.6hPa West 2.9mph /  4.7km/h 3mph /  4.8km/h 56% 0in /  0.0mm 0 W/m2
21:20 67.8 °F /  19.9 °C 51.6 °F /  10.9 °C 30in /  1016.6hPa WSW 4mph /  6.4km/h 7mph /  11.3km/h 56% 0in /  0.0mm 0 W/m2
21:25 67.6 °F /  19.8 °C 51.4 °F /  10.8 °C 30in /  1016.6hPa WNW 2mph /  3.2km/h 4mph /  6.4km/h 56% 0in /  0.0mm 0 W/m2
21:30 67.5 °F /  19.7 °C 51.6 °F /  10.9 °C 30in /  1016.9hPa West 2.9mph /  4.7km/h 7mph /  11.3km/h 57% 0in /  0.0mm 0 W/m2
21:35 67.5 °F /  19.7 °C 51.6 °F /  10.9 °C 30in /  1016.9hPa WSW 0.9mph /  1.4km/h 5mph /  8km/h 57% 0in /  0.0mm 0 W/m2
21:40 67.3 °F /  19.6 °C 51.4 °F /  10.8 °C 30in /  1016.9hPa West 2.9mph /  4.7km/h 4mph /  6.4km/h 57% 0in /  0.0mm 0 W/m2
21:45 67.3 °F /  19.6 °C 51.4 °F /  10.8 °C 30in /  1016.9hPa WNW 2.9mph /  4.7km/h 4mph /  6.4km/h 57% 0in /  0.0mm 0 W/m2
21:50 67.3 °F /  19.6 °C 51.4 °F /  10.8 °C 30in /  1016.9hPa WNW 2.9mph /  4.7km/h 4mph /  6.4km/h 57% 0in /  0.0mm 0 W/m2
21:55 66.9 °F /  19.4 °C 51.6 °F /  10.9 °C 30in /  1017.3hPa WNW 2.9mph /  4.7km/h 4mph /  6.4km/h 58% 0in /  0.0mm 0 W/m2
22:00 66.9 °F /  19.4 °C 51.6 °F /  10.9 °C 30in /  1017.3hPa West 6.9mph /  11.1km/h 7mph /  11.3km/h 58% 0in /  0.0mm 0 W/m2
22:05 66.7 °F /  19.3 °C 51.4 °F /  10.8 °C 30in /  1017.3hPa West 2mph /  3.2km/h 6mph /  9.7km/h 58% 0in /  0.0mm 0 W/m2
22:10 66.7 °F /  19.3 °C 52 °F /  11.1 °C 30in /  1017.3hPa West 2.9mph /  4.7km/h 3mph /  4.8km/h 59% 0in /  0.0mm 0 W/m2
22:15 66.6 °F /  19.2 °C 51.8 °F /  11 °C 30in /  1017.3hPa West 2.9mph /  4.7km/h 4mph /  6.4km/h 59% 0in /  0.0mm 0 W/m2
22:20 66.4 °F /  19.1 °C 51.6 °F /  10.9 °C 30in /  1017.3hPa West 2mph /  3.2km/h 9mph /  14.5km/h 59% 0in /  0.0mm 0 W/m2
22:25 66.4 °F /  19.1 °C 51.6 °F /  10.9 °C 30in /  1017.3hPa West 4mph /  6.4km/h 4mph /  6.4km/h 59% 0in /  0.0mm 0 W/m2
22:31 66.2 °F /  19 °C 52 °F /  11.1 °C 30.1in /  1017.6hPa WNW 2mph /  3.2km/h 8mph /  12.9km/h 60% 0in /  0.0mm 0 W/m2
22:36 65.8 °F /  18.8 °C 52 °F /  11.1 °C 30.1in /  1017.6hPa WNW 2.9mph /  4.7km/h 3mph /  4.8km/h 61% 0in /  0.0mm 0 W/m2
22:41 65.3 °F /  18.5 °C 52 °F /  11.1 °C 30.1in /  1017.6hPa WNW 2mph /  3.2km/h 4mph /  6.4km/h 62% 0in /  0.0mm 0 W/m2
22:46 64.8 °F /  18.2 °C 51.8 °F /  11 °C 30.1in /  1018.0hPa West 2.9mph /  4.7km/h 4mph /  6.4km/h 63% 0in /  0.0mm 0 W/m2
22:51 64.2 °F /  17.9 °C 51.8 °F /  11 °C 30.1in /  1018.0hPa WNW 2mph /  3.2km/h 3mph /  4.8km/h 64% 0in /  0.0mm 0 W/m2
22:56 63.9 °F /  17.7 °C 51.8 °F /  11 °C 30.1in /  1018.0hPa West 2mph /  3.2km/h 3mph /  4.8km/h 65% 0in /  0.0mm 0 W/m2
23:01 63.7 °F /  17.6 °C 51.6 °F /  10.9 °C 30.1in /  1018.0hPa WNW 2mph /  3.2km/h 3mph /  4.8km/h 65% 0in /  0.0mm 0 W/m2
23:06 63.5 °F /  17.5 °C 52 °F /  11.1 °C 30.1in /  1018.0hPa WNW 2mph /  3.2km/h 4mph /  6.4km/h 66% 0in /  0.0mm 0 W/m2
23:11 63.5 °F /  17.5 °C 52 °F /  11.1 °C 30.1in /  1018.0hPa West 2mph /  3.2km/h 4mph /  6.4km/h 66% 0in /  0.0mm 0 W/m2
23:16 63.5 °F /  17.5 °C 52 °F /  11.1 °C 30.1in /  1018.0hPa West 0.9mph /  1.4km/h 3mph /  4.8km/h 66% 0in /  0.0mm 0 W/m2
23:21 63.3 °F /  17.4 °C 51.8 °F /  11 °C 30.1in /  1018.0hPa West 2mph /  3.2km/h 4mph /  6.4km/h 66% 0in /  0.0mm 0 W/m2
23:26 63.3 °F /  17.4 °C 52.2 °F /  11.2 °C 30.1in /  1018.0hPa WSW 2mph /  3.2km/h 4mph /  6.4km/h 67% 0in /  0.0mm 0 W/m2
23:31 63.3 °F /  17.4 °C 52.2 °F /  11.2 °C 30.1in /  1018.0hPa West 2mph /  3.2km/h 3mph /  4.8km/h 67% 0in /  0.0mm 0 W/m2
23:36 63.1 °F /  17.3 °C 52.3 °F /  11.3 °C 30.1in /  1018.0hPa West 2mph /  3.2km/h 3mph /  4.8km/h 68% 0in /  0.0mm 0 W/m2
23:41 63.1 °F /  17.3 °C 52.3 °F /  11.3 °C 30.1in /  1018.0hPa Calm   2mph /  3.2km/h 68% 0in /  0.0mm 0 W/m2
23:46 63 °F /  17.2 °C 52.2 °F /  11.2 °C 30.1in /  1018.3hPa WSW 2.9mph /  4.7km/h 4mph /  6.4km/h 68% 0in /  0.0mm 0 W/m2
23:51 62.8 °F /  17.1 °C 52.5 °F /  11.4 °C 30.1in /  1018.3hPa WSW 2.9mph /  4.7km/h 5mph /  8km/h 69% 0in /  0.0mm 0 W/m2
23:56 62.6 °F /  17 °C 52.7 °F /  11.5 °C 30.1in /  1018.3hPa West 2.9mph /  4.7km/h 6mph /  9.7km/h 70% 0in /  0.0mm 0 W/m2
Juneau County Weather
Compliments of Weather Underground - 4 mb